Belle Chasse — WDG2912 — position and weather

sailwx.info

Track history (hours):
 
Tides and Currents Weather Stations Pressure Air Temp Water Temp Dewpoint Dewpoint Depression Visibility Wind Speed Wind Dir Waves Ship Positions

Belle Chasse

Owner: Higman Barge Lines, Inc, Orange, TX. More information available from US FCC via Universal Licensing System and Coast Guard Vessel Documentation Center.

Last reported at 2016-May-25 01:33 UTC. Time now 2016-May-25 03:17 UTC.
Position N 29°41' W 095°00'.

Length 26 m; draft 3 m.

Type: Towing. MMSI: 367520550.

Date/timePositionNaut miles runAvg speedWind from/ knotsBaromVisibWave heightAir tempDewpointWater temp
2016-May-25 01:33N 29°41' W 095°00'1 1.1
2016-May-25 00:33N 29°41' W 094°59'7 7.4
2016-May-24 23:33N 29°34' W 094°55'13 0.6
2016-May-24 02:31N 29°22' W 094°50'2 1.1
2016-May-24 00:21N 29°23' W 094°53'  
2016-May-21 19:06N 29°23' W 094°53'6 3.1
2016-May-21 17:05N 29°29' W 094°52'3 6.0
2016-May-21 16:33N 29°31' W 094°53'6 5.9
2016-May-21 15:33N 29°36' W 094°57'6 6.0
2016-May-21 14:32N 29°42' W 094°60'5 5.2
2016-May-21 13:33N 29°45' W 095°04'5 5.1
2016-May-21 12:33N 29°45' W 095°10'3 0.2
2016-May-20 22:31N 29°44' W 095°14'5 5.3
2016-May-20 21:33N 29°44' W 095°08'4 0.4
2016-May-20 11:32N 29°47' W 095°05'0 0.0
2016-May-20 09:32N 29°47' W 095°05'1 0.1
2016-May-20 01:31N 29°46' W 095°05'8 5.9
2016-May-20 00:13N 29°44' W 095°13'3 0.1
2016-May-18 23:33N 29°45' W 095°10'3 0.3
2016-May-18 14:24N 29°46' W 095°07'1 0.0
2016-May-16 15:30N 29°45' W 095°07'0 0.0
2016-May-16 14:33N 29°45' W 095°07'0 0.0
2016-May-16 13:33N 29°45' W 095°07'1 0.1
2016-May-16 05:34N 29°46' W 095°06'1 0.8
2016-May-16 04:11N 29°45' W 095°07'0 0.0
2016-May-16 03:29N 29°45' W 095°07'1 0.6
2016-May-16 01:31N 29°45' W 095°06'4 1.8
2016-May-15 23:32N 29°45' W 095°10'0 0.0
2016-May-15 12:17N 29°44' W 095°10'1 0.7
2016-May-15 11:33N 29°44' W 095°09'3 0.4
2016-May-15 04:28N 29°46' W 095°07'  
Track history (hours):
 
Tides and Currents Weather Stations Pressure Air Temp Water Temp Dewpoint Dewpoint Depression Visibility Wind Speed Wind Dir Waves Ship Positions

Belle Chasse

Owner: Higman Barge Lines, Inc, Orange, TX. More information available from US FCC via Universal Licensing System and Coast Guard Vessel Documentation Center.

Last reported at 2016-May-25 01:33 UTC. Time now 2016-May-25 03:17 UTC.
Position N 29°41' W 095°00'.

Length 26 m; draft 3 m.

Type: Towing. MMSI: 367520550.

Date/timePositionNaut miles runAvg speedWind from/ knotsBaromVisibWave heightAir tempDewpointWater temp
2016-May-25 01:33N 29°41' W 095°00'1 1.1
2016-May-25 00:33N 29°41' W 094°59'7 7.4
2016-May-24 23:33N 29°34' W 094°55'13 0.6
2016-May-24 02:31N 29°22' W 094°50'2 1.1
2016-May-24 00:21N 29°23' W 094°53'  
2016-May-21 19:06N 29°23' W 094°53'6 3.1
2016-May-21 17:05N 29°29' W 094°52'3 6.0
2016-May-21 16:33N 29°31' W 094°53'6 5.9
2016-May-21 15:33N 29°36' W 094°57'6 6.0
2016-May-21 14:32N 29°42' W 094°60'5 5.2
2016-May-21 13:33N 29°45' W 095°04'5 5.1
2016-May-21 12:33N 29°45' W 095°10'3 0.2
2016-May-20 22:31N 29°44' W 095°14'5 5.3
2016-May-20 21:33N 29°44' W 095°08'4 0.4
2016-May-20 11:32N 29°47' W 095°05'0 0.0
2016-May-20 09:32N 29°47' W 095°05'1 0.1
2016-May-20 01:31N 29°46' W 095°05'8 5.9
2016-May-20 00:13N 29°44' W 095°13'3 0.1
2016-May-18 23:33N 29°45' W 095°10'3 0.3
2016-May-18 14:24N 29°46' W 095°07'1 0.0
2016-May-16 15:30N 29°45' W 095°07'0 0.0
2016-May-16 14:33N 29°45' W 095°07'0 0.0
2016-May-16 13:33N 29°45' W 095°07'1 0.1
2016-May-16 05:34N 29°46' W 095°06'1 0.8
2016-May-16 04:11N 29°45' W 095°07'0 0.0
2016-May-16 03:29N 29°45' W 095°07'1 0.6
2016-May-16 01:31N 29°45' W 095°06'4 1.8
2016-May-15 23:32N 29°45' W 095°10'0 0.0
2016-May-15 12:17N 29°44' W 095°10'1 0.7
2016-May-15 11:33N 29°44' W 095°09'3 0.4
2016-May-15 04:28N 29°46' W 095°07'  

Dump ship's entire track history